createdAt,value
2018-04-19T00:00:02.994Z,20.8
2018-04-19T00:00:52.473Z,20.8
2018-04-19T00:01:42.795Z,20.8
2018-04-19T00:02:33.170Z,20.8
2018-04-19T00:03:22.996Z,20.8
2018-04-19T00:04:12.741Z,20.8
2018-04-19T00:05:03.116Z,20.8
2018-04-19T00:05:53.400Z,20.8
2018-04-19T00:06:43.738Z,20.8
2018-04-19T00:07:33.260Z,20.8
2018-04-19T00:08:23.853Z,20.8
2018-04-19T00:09:13.376Z,20.8
2018-04-19T00:10:03.763Z,20.8
2018-04-19T00:10:53.603Z,20.8
2018-04-19T00:11:44.116Z,20.8
2018-04-19T00:12:33.903Z,20.8
2018-04-19T00:13:23.738Z,20.8
2018-04-19T00:14:14.076Z,20.8
2018-04-19T00:15:04.142Z,20.8
2018-04-19T00:15:53.908Z,20.8
2018-04-19T00:16:44.217Z,20.8
2018-04-19T00:17:34.545Z,20.8
2018-04-19T00:18:24.082Z,20.8
2018-04-19T00:19:14.655Z,20.8
2018-04-19T00:20:03.932Z,20.8
2018-04-19T00:20:54.607Z,20.8
2018-04-19T00:21:44.022Z,20.8
2018-04-19T00:22:34.953Z,20.8
2018-04-19T00:23:24.447Z,20.8
2018-04-19T00:24:14.577Z,20.8
2018-04-19T00:25:04.899Z,20.8
2018-04-19T00:25:54.915Z,20.8
2018-04-19T00:26:44.984Z,20.8
2018-04-19T00:27:35.336Z,20.8
2018-04-19T00:28:25.366Z,20.8
2018-04-19T00:29:15.445Z,20.8
2018-04-19T00:30:04.701Z,20.8
2018-04-19T00:30:55.556Z,20.8
2018-04-19T00:31:45.384Z,20.8
2018-04-19T00:32:34.906Z,20.8
2018-04-19T00:33:24.734Z,20.8
2018-04-19T00:34:15.819Z,20.8
2018-04-19T00:35:05.947Z,20.8
2018-04-19T00:35:55.729Z,20.8
2018-04-19T00:36:46.009Z,20.8
2018-04-19T00:37:35.547Z,20.8
2018-04-19T00:38:25.868Z,20.8
2018-04-19T00:39:15.941Z,20.8
2018-04-19T00:40:05.736Z,20.8
2018-04-19T00:40:56.016Z,20.8
2018-04-19T00:41:46.226Z,20.8
2018-04-19T00:42:36.478Z,20.8
2018-04-19T00:43:25.961Z,20.8
2018-04-19T00:44:16.012Z,20.8
2018-04-19T00:45:06.391Z,20.8
2018-04-19T00:45:56.481Z,20.8
2018-04-19T00:46:45.411Z,20.8
2018-04-19T00:47:36.056Z,20.8
2018-04-19T00:48:26.444Z,20.8
2018-04-19T00:49:16.961Z,20.8
2018-04-19T00:50:06.853Z,20.8
2018-04-19T00:50:56.796Z,20.8
2018-04-19T00:51:47.154Z,20.8
2018-04-19T00:52:36.681Z,20.8
2018-04-19T00:53:27.301Z,20.8
2018-04-19T00:54:16.796Z,20.8
2018-04-19T00:55:06.271Z,20.8
2018-04-19T00:55:56.898Z,20.8
2018-04-19T00:56:47.330Z,20.8
2018-04-19T00:57:36.788Z,20.8
2018-04-19T00:58:27.659Z,20.8
2018-04-19T00:59:17.535Z,20.8
2018-04-19T01:00:07.013Z,20.8
2018-04-19T01:00:57.866Z,20.8
2018-04-19T01:01:47.896Z,20.8
2018-04-19T01:02:37.150Z,20.8
2018-04-19T01:03:27.770Z,20.8
2018-04-19T01:04:17.885Z,20.8
2018-04-19T01:05:07.930Z,20.8
2018-04-19T01:05:58.258Z,20.8
2018-04-19T01:06:48.320Z,20.8
2018-04-19T01:07:38.080Z,20.8
2018-04-19T01:08:28.412Z,20.8
2018-04-19T01:09:18.473Z,20.8
2018-04-19T01:10:07.975Z,20.8
2018-04-19T01:10:58.365Z,20.8
2018-04-19T01:11:48.425Z,20.8
2018-04-19T01:12:38.300Z,20.8
2018-04-19T01:13:28.094Z,20.8
2018-04-19T01:14:18.360Z,20.8
2018-04-19T01:15:07.907Z,20.8
2018-04-19T01:15:57.970Z,20.8
2018-04-19T01:16:48.783Z,20.8
2018-04-19T01:17:38.313Z,20.8
2018-04-19T01:18:28.869Z,20.8
2018-04-19T01:19:18.462Z,20.8
2018-04-19T01:20:08.260Z,20.8
2018-04-19T01:20:59.422Z,20.8
2018-04-19T01:21:49.164Z,20.8
2018-04-19T01:22:39.189Z,20.8
2018-04-19T01:23:29.560Z,20.8
2018-04-19T01:24:19.074Z,20.8
2018-04-19T01:25:08.859Z,20.8
2018-04-19T01:25:59.192Z,20.8
2018-04-19T01:26:49.254Z,20.8
2018-04-19T01:27:39.008Z,20.8
2018-04-19T01:28:28.829Z,20.8
2018-04-19T01:29:19.227Z,20.8
2018-04-19T01:30:09.287Z,20.8
2018-04-19T01:30:59.594Z,20.8
2018-04-19T01:31:49.927Z,20.8
2018-04-19T01:32:39.534Z,20.8
2018-04-19T01:33:30.349Z,20.8
2018-04-19T01:34:19.589Z,20.8
2018-04-19T01:35:09.424Z,20.8
2018-04-19T01:35:59.967Z,20.8
2018-04-19T01:36:50.278Z,20.8
2018-04-19T01:37:40.720Z,20.8
2018-04-19T01:38:30.528Z,20.8
2018-04-19T01:39:20.179Z,20.8
2018-04-19T01:40:10.829Z,20.8
2018-04-19T01:41:00.036Z,20.8
2018-04-19T01:41:51.002Z,20.8
2018-04-19T01:42:39.898Z,20.8
2018-04-19T01:43:30.778Z,20.8
2018-04-19T01:44:20.593Z,20.8
2018-04-19T01:45:10.671Z,20.8
2018-04-19T01:46:01.025Z,20.8
2018-04-19T01:46:51.098Z,20.8
2018-04-19T01:47:41.120Z,20.8
2018-04-19T01:48:30.900Z,20.8
2018-04-19T01:49:21.560Z,20.8
2018-04-19T01:50:11.563Z,20.8
2018-04-19T01:51:01.158Z,20.8
2018-04-19T01:51:50.893Z,20.8
2018-04-19T01:52:41.517Z,20.8
2018-04-19T01:53:31.348Z,20.8
2018-04-19T01:54:21.867Z,20.8
2018-04-19T01:55:11.427Z,20.8
2018-04-19T01:56:01.495Z,20.8
2018-04-19T01:56:51.552Z,20.8
2018-04-19T01:57:41.590Z,20.8
2018-04-19T01:58:31.643Z,20.8
2018-04-19T01:59:21.709Z,20.8
2018-04-19T02:00:10.816Z,20.8
2018-04-19T02:01:01.119Z,20.7
2018-04-19T02:01:51.500Z,20.8
2018-04-19T02:02:41.757Z,20.8
2018-04-19T02:03:31.832Z,20.8
2018-04-19T02:04:21.730Z,20.8
2018-04-19T02:05:11.449Z,20.7
2018-04-19T02:06:00.420Z,20.8
2018-04-19T02:06:52.359Z,20.8
2018-04-19T02:07:41.591Z,20.8
2018-04-19T02:08:31.077Z,20.8
2018-04-19T02:09:22.259Z,20.8
2018-04-19T02:10:11.619Z,20.8
2018-04-19T02:11:02.616Z,20.8
2018-04-19T02:11:51.837Z,20.8
2018-04-19T02:12:42.066Z,20.8
2018-04-19T02:13:30.928Z,20.8
2018-04-19T02:14:21.479Z,20.8
2018-04-19T02:15:10.864Z,20.8
2018-04-19T02:16:01.749Z,20.8
2018-04-19T02:16:51.628Z,20.8
2018-04-19T02:17:42.348Z,20.8
2018-04-19T02:18:31.906Z,20.8
2018-04-19T02:19:22.545Z,20.8
2018-04-19T02:20:12.511Z,20.8
2018-04-19T02:21:03.156Z,20.8
2018-04-19T02:21:52.605Z,20.8
2018-04-19T02:22:42.473Z,20.8
2018-04-19T02:23:32.335Z,20.8
2018-04-19T02:24:22.975Z,20.8
2018-04-19T02:25:12.995Z,20.8
2018-04-19T02:26:03.378Z,20.8
2018-04-19T02:26:52.515Z,20.8
2018-04-19T02:27:44.246Z,20.8
2018-04-19T02:28:34.320Z,20.8
2018-04-19T02:29:23.618Z,20.8
2018-04-19T02:30:12.991Z,20.7
2018-04-19T02:31:02.151Z,20.7
2018-04-19T02:31:52.682Z,20.8
2018-04-19T02:32:43.735Z,20.8
2018-04-19T02:33:34.110Z,20.8
2018-04-19T02:34:23.368Z,20.8
2018-04-19T02:35:13.530Z,20.7
2018-04-19T02:36:04.586Z,20.8
2018-04-19T02:36:54.647Z,20.8
2018-04-19T02:37:44.605Z,20.8
2018-04-19T02:38:34.992Z,20.8
2018-04-19T02:39:24.514Z,20.8
2018-04-19T02:40:14.594Z,20.8
2018-04-19T02:41:05.200Z,20.7
2018-04-19T02:41:55.262Z,20.8
2018-04-19T02:42:45.612Z,20.8
2018-04-19T02:43:34.834Z,20.7
2018-04-19T02:44:25.685Z,20.7
2018-04-19T02:45:14.982Z,20.7
2018-04-19T02:46:05.910Z,20.7
2018-04-19T02:46:55.339Z,20.8
2018-04-19T02:47:45.714Z,20.8
2018-04-19T02:48:35.211Z,20.8
2018-04-19T02:49:26.224Z,20.8
2018-04-19T02:50:15.630Z,20.8
2018-04-19T02:51:05.952Z,20.8
2018-04-19T02:51:55.746Z,20.8
2018-04-19T02:52:46.150Z,20.8
2018-04-19T02:53:35.591Z,20.8
2018-04-19T02:54:25.721Z,20.8
2018-04-19T02:55:16.286Z,20.7
2018-04-19T02:56:06.099Z,20.8
2018-04-19T02:56:56.199Z,20.7
2018-04-19T02:57:46.259Z,20.7
2018-04-19T02:58:35.339Z,20.7
2018-04-19T02:59:24.509Z,20.7
2018-04-19T03:00:16.559Z,20.7
2018-04-19T03:01:05.372Z,20.8
2018-04-19T03:01:55.696Z,20.8
2018-04-19T03:02:45.411Z,20.8
2018-04-19T03:03:36.397Z,20.8
2018-04-19T03:04:26.301Z,20.8
2018-04-19T03:05:15.658Z,20.8
2018-04-19T03:06:05.296Z,20.8
2018-04-19T03:06:56.905Z,20.7
2018-04-19T03:07:45.031Z,20.7
2018-04-19T03:08:36.757Z,20.7
2018-04-19T03:09:26.386Z,20.7
2018-04-19T03:10:16.416Z,20.7
2018-04-19T03:11:06.955Z,20.8
2018-04-19T03:11:56.955Z,20.7
2018-04-19T03:12:46.765Z,20.8
2018-04-19T03:13:36.598Z,20.7
2018-04-19T03:14:26.520Z,20.7
2018-04-19T03:15:16.637Z,20.7
2018-04-19T03:16:07.270Z,20.7
2018-04-19T03:16:57.192Z,20.7
2018-04-19T03:17:46.728Z,20.6
2018-04-19T03:18:36.014Z,20.6
2018-04-19T03:19:27.182Z,20.6
2018-04-19T03:20:17.232Z,20.6
2018-04-19T03:21:07.230Z,20.6
2018-04-19T03:21:57.294Z,20.6
2018-04-19T03:22:47.621Z,20.6
2018-04-19T03:23:37.404Z,20.6
2018-04-19T03:24:26.702Z,20.6
2018-04-19T03:25:17.203Z,20.6
2018-04-19T03:26:07.240Z,20.7
2018-04-19T03:26:57.076Z,20.7
2018-04-19T03:27:47.161Z,20.7
2018-04-19T03:28:37.290Z,20.7
2018-04-19T03:29:27.856Z,20.6
2018-04-19T03:30:17.142Z,20.6
2018-04-19T03:31:09.317Z,20.6
2018-04-19T03:31:58.174Z,20.6
2018-04-19T03:32:49.372Z,20.7
2018-04-19T03:33:38.309Z,20.6
2018-04-19T03:34:29.261Z,20.7
2018-04-19T03:35:19.010Z,20.7
2018-04-19T03:36:09.111Z,20.7
2018-04-19T03:36:58.893Z,20.7
2018-04-19T03:37:48.678Z,20.7
2018-04-19T03:38:39.608Z,20.7
2018-04-19T03:39:28.730Z,20.7
2018-04-19T03:40:19.673Z,20.7
2018-04-19T03:41:09.440Z,20.6
2018-04-19T03:42:00.073Z,20.7
2018-04-19T03:42:49.613Z,20.7
2018-04-19T03:43:39.392Z,20.6
2018-04-19T03:44:28.861Z,20.6
2018-04-19T03:45:19.504Z,20.6
2018-04-19T03:46:10.418Z,20.7
2018-04-19T03:47:00.431Z,20.6
2018-04-19T03:47:50.503Z,20.6
2018-04-19T03:48:41.241Z,20.7
2018-04-19T03:49:30.069Z,20.6
2018-04-19T03:50:20.493Z,20.6
2018-04-19T03:51:10.751Z,20.6
2018-04-19T03:52:00.281Z,20.6
2018-04-19T03:52:50.050Z,20.6
2018-04-19T03:53:40.253Z,20.6
2018-04-19T03:54:30.280Z,20.6
2018-04-19T03:55:20.614Z,20.6
2018-04-19T03:56:10.872Z,20.6
2018-04-19T03:57:00.907Z,20.6
2018-04-19T03:57:51.299Z,20.6
2018-04-19T03:58:39.698Z,20.6
2018-04-19T03:59:31.183Z,20.6
2018-04-19T04:00:21.168Z,20.6
2018-04-19T04:01:12.612Z,20.6
2018-04-19T04:02:01.338Z,20.6
2018-04-19T04:02:50.778Z,20.6
2018-04-19T04:03:41.425Z,20.6
2018-04-19T04:04:31.495Z,20.6
2018-04-19T04:05:20.443Z,20.6
2018-04-19T04:06:11.628Z,20.5
2018-04-19T04:07:01.958Z,20.5
2018-04-19T04:07:51.523Z,20.5
2018-04-19T04:08:41.539Z,20.5
2018-04-19T04:09:31.296Z,20.6
2018-04-19T04:10:21.369Z,20.5
2018-04-19T04:11:12.327Z,20.5
2018-04-19T04:12:02.075Z,20.5
2018-04-19T04:12:51.654Z,20.6
2018-04-19T04:13:41.908Z,20.6
2018-04-19T04:14:32.568Z,20.6
2018-04-19T04:15:21.771Z,20.6
2018-04-19T04:16:12.090Z,20.6
2018-04-19T04:17:01.005Z,20.6
2018-04-19T04:17:52.787Z,20.6
2018-04-19T04:18:42.299Z,20.5
2018-04-19T04:19:32.087Z,20.6
2018-04-19T04:20:21.896Z,20.6
2018-04-19T04:21:13.046Z,20.6
2018-04-19T04:22:03.077Z,20.6
2018-04-19T04:22:52.856Z,20.6
2018-04-19T04:23:42.933Z,20.5
2018-04-19T04:24:33.037Z,20.5
2018-04-19T04:25:22.205Z,20.5
2018-04-19T04:26:12.540Z,20.5
2018-04-19T04:27:02.061Z,20.5
2018-04-19T04:27:53.245Z,20.6
2018-04-19T04:28:43.328Z,20.6
2018-04-19T04:29:33.130Z,20.6
2018-04-19T04:30:23.752Z,20.6
2018-04-19T04:31:14.305Z,20.6
2018-04-19T04:32:03.904Z,20.6
2018-04-19T04:32:53.909Z,20.6
2018-04-19T04:33:43.693Z,20.5
2018-04-19T04:34:33.748Z,20.5
2018-04-19T04:35:24.449Z,20.6
2018-04-19T04:36:14.153Z,20.6
2018-04-19T04:37:03.171Z,20.6
2018-04-19T04:37:53.991Z,20.6
2018-04-19T04:38:43.356Z,20.6
2018-04-19T04:39:34.176Z,20.6
2018-04-19T04:40:23.721Z,20.6
2018-04-19T04:41:14.100Z,20.6
2018-04-19T04:42:04.103Z,20.6
2018-04-19T04:42:53.896Z,20.6
2018-04-19T04:43:43.132Z,20.6
2018-04-19T04:44:34.279Z,20.6
2018-04-19T04:45:22.956Z,20.6
2018-04-19T04:46:13.566Z,20.6
2018-04-19T04:47:04.461Z,20.6
2018-04-19T04:47:54.586Z,20.6
2018-04-19T04:48:44.041Z,20.6
2018-04-19T04:49:35.233Z,20.6
2018-04-19T04:50:24.723Z,20.6
2018-04-19T04:51:15.328Z,20.6
2018-04-19T04:52:04.859Z,20.6
2018-04-19T04:52:55.156Z,20.6
2018-04-19T04:53:43.800Z,20.6
2018-04-19T04:54:35.294Z,20.6
2018-04-19T04:55:25.303Z,20.6
2018-04-19T04:56:14.819Z,20.7
2018-04-19T04:57:05.455Z,20.6
2018-04-19T04:57:54.705Z,20.6
2018-04-19T04:58:45.873Z,20.6
2018-04-19T04:59:35.921Z,20.6
2018-04-19T05:00:25.203Z,20.6
2018-04-19T05:01:15.760Z,20.6
2018-04-19T05:02:06.114Z,20.7
2018-04-19T05:02:55.337Z,20.7
2018-04-19T05:03:46.028Z,20.6
2018-04-19T05:04:35.198Z,20.6
2018-04-19T05:05:25.572Z,20.6
2018-04-19T05:06:15.035Z,20.6
2018-04-19T05:07:05.399Z,20.6
2018-04-19T05:07:55.684Z,20.6
2018-04-19T05:08:45.753Z,20.6
2018-04-19T05:09:36.455Z,20.7
2018-04-19T05:10:26.510Z,20.6
2018-04-19T05:11:15.725Z,20.6
2018-04-19T05:12:06.631Z,20.7
2018-04-19T05:12:56.634Z,20.7
2018-04-19T05:13:46.443Z,20.7
2018-04-19T05:14:36.925Z,20.6
2018-04-19T05:15:26.890Z,20.7
2018-04-19T05:16:16.639Z,20.7
2018-04-19T05:17:06.700Z,20.7
2018-04-19T05:17:56.156Z,20.7
2018-04-19T05:18:46.539Z,20.7
2018-04-19T05:19:36.876Z,20.7
2018-04-19T05:20:27.574Z,20.7
2018-04-19T05:21:16.819Z,20.8
2018-04-19T05:22:05.942Z,20.7
2018-04-19T05:22:57.124Z,20.7
2018-04-19T05:23:47.172Z,20.7
2018-04-19T05:24:37.514Z,20.7
2018-04-19T05:25:27.068Z,20.7
2018-04-19T05:26:17.912Z,20.7
2018-04-19T05:27:08.017Z,20.7
2018-04-19T05:27:56.696Z,20.6
2018-04-19T05:28:47.325Z,20.7
2018-04-19T05:29:37.072Z,20.7
2018-04-19T05:30:27.403Z,20.7
2018-04-19T05:31:17.541Z,20.6
2018-04-19T05:32:06.706Z,20.6
2018-04-19T05:32:57.306Z,20.6
2018-04-19T05:33:47.673Z,20.6
2018-04-19T05:34:37.714Z,20.6
2018-04-19T05:35:28.266Z,20.6
2018-04-19T05:36:18.160Z,20.6
2018-04-19T05:37:07.785Z,20.6
2018-04-19T05:37:58.541Z,20.6
2018-04-19T05:38:48.036Z,20.6
2018-04-19T05:39:36.463Z,20.6
2018-04-19T05:40:28.715Z,20.6
2018-04-19T05:41:18.551Z,20.6
2018-04-19T05:42:08.284Z,20.6
2018-04-19T05:42:58.092Z,20.6
2018-04-19T05:43:49.013Z,20.6
2018-04-19T05:44:39.036Z,20.6
2018-04-19T05:45:28.829Z,20.6
2018-04-19T05:46:18.860Z,20.7
2018-04-19T05:47:08.960Z,20.7
2018-04-19T05:47:59.004Z,20.7
2018-04-19T05:48:48.055Z,20.6
2018-04-19T05:49:39.397Z,20.6
2018-04-19T05:50:28.445Z,20.7
2018-04-19T05:51:19.227Z,20.6
2018-04-19T05:52:08.763Z,20.6
2018-04-19T05:53:00.026Z,20.6
2018-04-19T05:53:49.781Z,20.6
2018-04-19T05:54:39.408Z,20.6
2018-04-19T05:55:29.900Z,20.6
2018-04-19T05:56:19.930Z,20.6
2018-04-19T05:57:10.277Z,20.6
2018-04-19T05:57:59.845Z,20.6
2018-04-19T05:58:49.501Z,20.6
2018-04-19T05:59:40.151Z,20.6
2018-04-19T06:00:29.644Z,20.7
2018-04-19T06:01:20.272Z,20.7
2018-04-19T06:02:10.119Z,20.7
2018-04-19T06:03:00.167Z,20.6
2018-04-19T06:03:50.461Z,20.6
2018-04-19T06:04:39.679Z,20.7
2018-04-19T06:05:30.346Z,20.7
2018-04-19T06:06:19.783Z,20.6
2018-04-19T06:07:10.187Z,20.6
2018-04-19T06:08:00.804Z,20.7
2018-04-19T06:08:50.831Z,20.7
2018-04-19T06:09:41.246Z,20.7
2018-04-19T06:10:30.768Z,20.6
2018-04-19T06:11:20.293Z,20.7
2018-04-19T06:12:09.798Z,20.7
2018-04-19T06:13:00.691Z,20.7
2018-04-19T06:13:51.083Z,20.7
2018-04-19T06:14:40.238Z,20.7
2018-04-19T06:15:30.595Z,20.6
2018-04-19T06:16:20.950Z,20.7
2018-04-19T06:17:10.729Z,20.6
2018-04-19T06:18:01.553Z,20.6
2018-04-19T06:18:50.489Z,20.6
2018-04-19T06:19:40.523Z,20.7
2018-04-19T06:20:31.198Z,20.7
2018-04-19T06:21:20.685Z,20.7
2018-04-19T06:22:11.873Z,20.7
2018-04-19T06:23:01.388Z,20.6
2018-04-19T06:23:51.421Z,20.6
2018-04-19T06:24:41.468Z,20.6
2018-04-19T06:25:31.236Z,20.6
2018-04-19T06:26:22.182Z,20.6
2018-04-19T06:27:11.340Z,20.7
2018-04-19T06:28:02.545Z,20.6
2018-04-19T06:28:52.338Z,20.7
2018-04-19T06:29:42.395Z,20.6
2018-04-19T06:30:32.746Z,20.7
2018-04-19T06:31:22.265Z,20.7
2018-04-19T06:32:12.892Z,20.7
2018-04-19T06:33:02.652Z,20.6
2018-04-19T06:33:52.449Z,20.6
2018-04-19T06:34:42.513Z,20.7
2018-04-19T06:35:31.150Z,20.6
2018-04-19T06:36:22.906Z,20.7
2018-04-19T06:37:12.726Z,20.6
2018-04-19T06:38:03.350Z,20.6
2018-04-19T06:38:52.278Z,20.6
2018-04-19T06:39:42.877Z,20.6
2018-04-19T06:40:32.946Z,20.7
2018-04-19T06:41:23.024Z,20.8
2018-04-19T06:42:13.658Z,20.8
2018-04-19T06:43:03.164Z,20.9
2018-04-19T06:43:53.209Z,21
2018-04-19T06:44:43.259Z,21.1
2018-04-19T06:45:33.584Z,21.1
2018-04-19T06:48:53.317Z,21.2
2018-04-19T06:49:42.821Z,21.2
2018-04-19T06:50:33.969Z,21.3
2018-04-19T06:51:24.668Z,21.3
2018-04-19T06:52:13.262Z,21.3
2018-04-19T06:53:03.693Z,21.3
2018-04-19T06:53:53.686Z,21.3
2018-04-19T06:54:44.309Z,21.3
2018-04-19T06:55:33.556Z,21.3
2018-04-19T06:56:24.187Z,21.3
2018-04-19T06:57:14.224Z,21.3
2018-04-19T06:58:04.260Z,21.3
2018-04-19T06:58:53.790Z,21.4
2018-04-19T06:59:43.823Z,21.4
2018-04-19T07:00:35.093Z,21.4
2018-04-19T07:01:24.838Z,21.4
2018-04-19T07:02:14.894Z,21.4
2018-04-19T07:03:04.744Z,21.4
2018-04-19T07:03:55.016Z,21.4
2018-04-19T07:04:44.800Z,21.4
2018-04-19T07:05:35.373Z,21.4
2018-04-19T07:06:25.138Z,21.4
2018-04-19T07:07:15.537Z,21.4
2018-04-19T07:08:05.644Z,21.4
2018-04-19T07:08:55.687Z,21.4
2018-04-19T07:09:45.720Z,21.4
2018-04-19T07:10:35.505Z,21.4
2018-04-19T07:11:24.999Z,21.4
2018-04-19T07:12:14.813Z,21.5
2018-04-19T07:13:05.740Z,21.4
2018-04-19T07:13:55.797Z,21.4
2018-04-19T07:14:46.291Z,21.5
2018-04-19T07:15:35.880Z,21.5
2018-04-19T07:16:25.955Z,21.4
2018-04-19T07:17:16.293Z,21.4
2018-04-19T07:18:06.132Z,21.4
2018-04-19T07:18:55.915Z,21.4
2018-04-19T07:19:45.960Z,21.4
2018-04-19T07:20:35.292Z,21.4
2018-04-19T07:21:25.586Z,21.4
2018-04-19T07:22:15.024Z,21.4
2018-04-19T07:23:05.464Z,21.4
2018-04-19T07:23:55.318Z,21.4
2018-04-19T07:24:45.949Z,21.4
2018-04-19T07:25:35.373Z,21.4
2018-04-19T07:26:26.468Z,21.4
2018-04-19T07:27:15.768Z,21.4
2018-04-19T07:28:06.867Z,21.4
2018-04-19T07:28:56.894Z,21.4
2018-04-19T07:29:45.347Z,21.4
2018-04-19T07:30:37.301Z,21.4
2018-04-19T07:31:27.445Z,21.4
2018-04-19T07:32:17.117Z,21.4
2018-04-19T07:33:06.473Z,21.4
2018-04-19T07:33:56.834Z,21.4
2018-04-19T07:34:46.801Z,21.4
2018-04-19T07:35:37.716Z,21.4
2018-04-19T07:36:27.200Z,21.4
2018-04-19T07:37:17.895Z,21.5
2018-04-19T07:38:07.076Z,21.4
2018-04-19T07:38:57.103Z,21.4
2018-04-19T07:39:47.457Z,21.4
2018-04-19T07:40:37.863Z,21.4
2018-04-19T07:41:28.155Z,21.4
2018-04-19T07:42:18.018Z,21.4
2018-04-19T07:43:07.802Z,21.4
2018-04-19T07:43:57.800Z,21.4
2018-04-19T07:44:47.125Z,21.4
2018-04-19T07:45:37.922Z,21.4
2018-04-19T07:46:28.032Z,21.4
2018-04-19T07:47:17.295Z,21.4
2018-04-19T07:48:07.852Z,21.4
2018-04-19T07:48:58.187Z,21.4
2018-04-19T07:49:48.514Z,21.4
2018-04-19T07:50:38.601Z,21.4
2018-04-19T07:51:29.003Z,21.4
2018-04-19T07:52:18.714Z,21.4
2018-04-19T07:53:08.789Z,21.4
2018-04-19T07:53:58.868Z,21.4
2018-04-19T07:54:48.912Z,21.4
2018-04-19T07:55:38.936Z,21.5
2018-04-19T07:56:27.898Z,21.4
2018-04-19T07:57:18.369Z,21.4
2018-04-19T07:58:08.920Z,21.4
2018-04-19T07:58:58.954Z,21.5
2018-04-19T07:59:48.054Z,21.5
2018-04-19T08:00:39.306Z,21.5
2018-04-19T08:01:29.443Z,21.4
2018-04-19T08:02:18.146Z,21.5
2018-04-19T08:03:09.881Z,21.4
2018-04-19T08:03:58.244Z,21.4
2018-04-19T08:04:49.939Z,21.4
2018-04-19T08:05:39.600Z,21.5
2018-04-19T08:06:29.096Z,21.5
2018-04-19T08:07:18.842Z,21.5
2018-04-19T08:08:09.971Z,21.5
2018-04-19T08:08:58.884Z,21.6
2018-04-19T08:09:49.026Z,21.5
2018-04-19T08:10:39.124Z,21.5
2018-04-19T08:11:29.517Z,21.4
2018-04-19T08:12:19.724Z,21.5
2018-04-19T08:13:09.204Z,21.5
2018-04-19T08:14:00.425Z,21.5
2018-04-19T08:14:49.909Z,21.5
2018-04-19T08:15:40.044Z,21.5
2018-04-19T08:16:30.044Z,21.5
2018-04-19T08:17:20.709Z,21.5
2018-04-19T08:18:09.604Z,21.5
2018-04-19T08:19:00.616Z,21.5
2018-04-19T08:19:49.733Z,21.5
2018-04-19T08:20:39.868Z,21.5
2018-04-19T08:21:30.396Z,21.6
2018-04-19T08:22:20.209Z,21.6
2018-04-19T08:23:11.128Z,21.6
2018-04-19T08:24:01.446Z,21.6
2018-04-19T08:24:49.631Z,21.6
2018-04-19T08:25:39.703Z,21.6
2018-04-19T08:26:29.855Z,21.6
2018-04-19T08:27:20.398Z,21.6
2018-04-19T08:28:09.913Z,21.6
2018-04-19T08:28:59.800Z,21.5
2018-04-19T08:29:51.881Z,21.5
2018-04-19T08:30:41.382Z,21.6
2018-04-19T08:31:32.015Z,21.6
2018-04-19T08:32:20.509Z,21.6
2018-04-19T08:33:11.117Z,21.6
2018-04-19T08:34:01.912Z,21.6
2018-04-19T08:34:52.007Z,21.6
2018-04-19T08:35:41.554Z,21.6
2018-04-19T08:36:31.832Z,21.6
2018-04-19T08:37:21.045Z,21.6
2018-04-19T08:38:11.971Z,21.5
2018-04-19T08:39:02.338Z,21.6
2018-04-19T08:39:52.649Z,21.6
2018-04-19T08:40:42.180Z,21.6
2018-04-19T08:41:32.834Z,21.6
2018-04-19T08:42:21.572Z,21.6
2018-04-19T08:43:12.146Z,21.7
2018-04-19T08:44:02.162Z,21.6
2018-04-19T08:44:52.522Z,21.6
2018-04-19T08:45:42.864Z,21.6
2018-04-19T08:46:32.638Z,21.6
2018-04-19T08:47:23.270Z,21.6
2018-04-19T08:48:13.035Z,21.6
2018-04-19T08:49:02.822Z,21.6
2018-04-19T08:49:53.021Z,21.6
2018-04-19T08:50:42.932Z,21.6
2018-04-19T08:51:33.528Z,21.6
2018-04-19T08:52:23.368Z,21.6
2018-04-19T08:53:12.586Z,21.6
2018-04-19T08:54:02.934Z,21.6
2018-04-19T08:54:53.085Z,21.6
2018-04-19T08:55:43.100Z,21.7
2018-04-19T08:56:33.346Z,21.6
2018-04-19T08:57:23.784Z,21.7
2018-04-19T08:58:13.515Z,21.7
2018-04-19T08:59:03.878Z,21.6
2018-04-19T08:59:53.635Z,21.7
2018-04-19T09:00:43.454Z,21.7
2018-04-19T09:01:33.498Z,21.6
2018-04-19T09:02:24.145Z,21.7
2018-04-19T09:03:14.195Z,21.7
2018-04-19T09:04:03.563Z,21.7
2018-04-19T09:04:53.091Z,21.7
2018-04-19T09:05:43.638Z,21.7
2018-04-19T09:06:33.877Z,21.7
2018-04-19T09:07:24.558Z,21.8
2018-04-19T09:08:13.279Z,21.7
2018-04-19T09:09:04.385Z,21.7
2018-04-19T09:09:54.732Z,21.7
2018-04-19T09:10:44.240Z,21.8
2018-04-19T09:11:34.028Z,21.8
2018-04-19T09:12:24.367Z,21.7
2018-04-19T09:13:15.331Z,21.8
2018-04-19T09:14:04.321Z,21.8
2018-04-19T09:14:53.946Z,21.8
2018-04-19T09:15:44.590Z,21.8
2018-04-19T09:16:35.283Z,21.8
2018-04-19T09:17:25.031Z,21.8
2018-04-19T09:18:15.438Z,21.8
2018-04-19T09:19:05.176Z,21.8
2018-04-19T09:19:55.254Z,21.8
2018-04-19T09:20:45.817Z,21.7
2018-04-19T09:21:35.164Z,21.8
2018-04-19T09:22:26.243Z,21.8
2018-04-19T09:23:15.810Z,21.8
2018-04-19T09:24:05.555Z,21.7
2018-04-19T09:24:55.347Z,21.8
2018-04-19T09:25:45.980Z,21.7
2018-04-19T09:26:34.900Z,21.8
2018-04-19T09:27:25.826Z,21.7
2018-04-19T09:28:15.592Z,21.8
2018-04-19T09:29:05.122Z,21.8
2018-04-19T09:29:56.327Z,21.8
2018-04-19T09:30:46.580Z,21.8
2018-04-19T09:31:36.205Z,21.8
2018-04-19T09:32:25.719Z,21.8
2018-04-19T09:33:16.274Z,21.8
2018-04-19T09:34:06.376Z,21.8
2018-04-19T09:34:56.669Z,21.8
2018-04-19T09:35:47.019Z,21.8
2018-04-19T09:36:36.231Z,21.8
2018-04-19T09:37:26.891Z,21.7
2018-04-19T09:38:17.224Z,21.8
2018-04-19T09:39:07.002Z,21.8
2018-04-19T09:39:56.806Z,21.8
2018-04-19T09:40:47.441Z,21.8
2018-04-19T09:41:37.195Z,21.8
2018-04-19T09:42:26.991Z,21.8
2018-04-19T09:43:17.616Z,21.8
2018-04-19T09:44:07.407Z,21.8
2018-04-19T09:44:57.714Z,21.7
2018-04-19T09:45:47.535Z,21.7
2018-04-19T09:46:36.830Z,21.7
2018-04-19T09:47:26.601Z,21.7
2018-04-19T09:48:17.690Z,21.7
2018-04-19T09:49:08.073Z,21.8
2018-04-19T09:49:57.336Z,21.8
2018-04-19T09:50:46.788Z,21.8
2018-04-19T09:51:36.863Z,21.8
2018-04-19T09:52:28.302Z,21.8
2018-04-19T09:53:17.559Z,21.8
2018-04-19T09:54:10.301Z,21.8
2018-04-19T09:54:57.372Z,21.8
2018-04-19T09:55:48.324Z,21.7
2018-04-19T09:56:37.266Z,21.8
2018-04-19T09:57:28.437Z,21.8
2018-04-19T09:58:17.938Z,21.8
2018-04-19T09:59:07.732Z,21.8
2018-04-19T09:59:57.791Z,21.8
2018-04-19T10:00:47.979Z,21.8
2018-04-19T10:01:38.219Z,21.8
2018-04-19T10:02:29.253Z,21.8
2018-04-19T10:03:18.338Z,21.8
2018-04-19T10:04:08.749Z,21.8
2018-04-19T10:04:58.998Z,21.8
2018-04-19T10:05:48.807Z,21.8
2018-04-19T10:06:38.863Z,21.8
2018-04-19T10:07:27.781Z,21.8
2018-04-19T10:08:19.000Z,21.8
2018-04-19T10:09:08.796Z,21.8
2018-04-19T10:09:59.421Z,21.9
2018-04-19T10:10:49.185Z,21.8
2018-04-19T10:11:39.534Z,21.8
2018-04-19T10:12:29.341Z,21.8
2018-04-19T10:13:19.371Z,21.8
2018-04-19T10:14:09.771Z,21.8
2018-04-19T10:14:59.278Z,21.8
2018-04-19T10:15:48.786Z,21.8
2018-04-19T10:16:38.239Z,21.8
2018-04-19T10:17:28.839Z,21.8
2018-04-19T10:18:18.927Z,21.8
2018-04-19T10:19:10.209Z,21.8
2018-04-19T10:19:59.914Z,21.8
2018-04-19T10:20:50.556Z,21.8
2018-04-19T10:21:39.753Z,21.8
2018-04-19T10:22:29.797Z,21.8
2018-04-19T10:23:19.629Z,21.8
2018-04-19T10:24:10.286Z,21.8
2018-04-19T10:25:00.019Z,21.8
2018-04-19T10:25:50.916Z,21.8
2018-04-19T10:26:40.442Z,21.8
2018-04-19T10:27:30.690Z,21.8
2018-04-19T10:28:20.847Z,21.8
2018-04-19T10:29:10.968Z,21.8
2018-04-19T10:30:01.009Z,21.8
2018-04-19T10:30:50.506Z,21.8
2018-04-19T10:31:39.991Z,21.8
2018-04-19T10:32:31.211Z,21.8
2018-04-19T10:33:20.695Z,21.8
2018-04-19T10:34:11.546Z,21.8
2018-04-19T10:35:01.678Z,21.8
2018-04-19T10:35:51.149Z,21.8
2018-04-19T10:36:41.463Z,21.9
2018-04-19T10:37:31.831Z,21.8
2018-04-19T10:38:21.398Z,21.9
2018-04-19T10:39:11.720Z,21.8
2018-04-19T10:40:01.989Z,21.9
2018-04-19T10:40:51.242Z,21.9
2018-04-19T10:41:41.863Z,21.9
2018-04-19T10:42:31.387Z,21.9
2018-04-19T10:43:21.145Z,21.9
2018-04-19T10:44:12.379Z,21.9
2018-04-19T10:45:02.185Z,21.9
2018-04-19T10:45:51.676Z,21.9
2018-04-19T10:46:41.726Z,21.9
2018-04-19T10:47:32.025Z,21.9
2018-04-19T10:48:22.146Z,21.9
2018-04-19T10:49:12.249Z,21.9
2018-04-19T10:50:01.125Z,21.9
2018-04-19T10:50:52.088Z,21.9
2018-04-19T10:51:42.430Z,21.9
2018-04-19T10:52:32.152Z,22
2018-04-19T10:53:23.090Z,21.9
2018-04-19T10:54:12.610Z,21.9
2018-04-19T10:55:02.649Z,21.9
2018-04-19T10:55:53.034Z,21.9
2018-04-19T10:56:42.822Z,21.9
2018-04-19T10:57:32.835Z,21.9
2018-04-19T10:58:22.901Z,21.9
2018-04-19T10:59:13.054Z,21.9
2018-04-19T11:00:03.599Z,21.9
2018-04-19T11:00:53.186Z,21.9
2018-04-19T11:01:42.293Z,21.9
2018-04-19T11:02:32.927Z,21.9
2018-04-19T11:03:23.613Z,21.9
2018-04-19T11:04:13.332Z,21.9
2018-04-19T11:05:03.163Z,21.9
2018-04-19T11:05:53.203Z,22
2018-04-19T11:06:43.523Z,21.9
2018-04-19T11:07:33.333Z,21.9
2018-04-19T11:08:23.413Z,21.9